Tecumseh — WTW9257 — position and weather

sailwx.info

Track history (hours):
 
Tides and Currents Weather Stations Pressure Air Temp Water Temp Dewpoint Dewpoint Depression Visibility Wind Speed Wind Dir Waves Ship Positions

Tecumseh

Owner: Sause Bros. Inc., COOS BAY, OR. More information available from US FCC via Universal Licensing System and Coast Guard Vessel Documentation Center.

Last reported at 2018-Jun-17 15:18 UTC. Time now 2018-Jun-18 11:06 UTC.
Position N 37°47' W 122°34'.

Length 38 m; draft 5 m.

Type: Tow > 200 m length. MMSI: 367133160.

Date/timePositionNaut miles runAvg speedWind from/ knotsBaromVisibWave heightAir tempDewpointWater temp
2018-Jun-17 15:18N 37°47' W 122°34'310.6
2018-Jun-17 15:00N 37°49' W 122°31'510.5
2018-Jun-17 14:30N 37°51' W 122°24'4 0.3
2018-Jun-17 01:34N 37°54' W 122°24'111.4
2018-Jun-17 01:30N 37°54' W 122°23'1 1.2
2018-Jun-17 00:34N 37°55' W 122°22'0 2.1
2018-Jun-17 00:25N 37°55' W 122°22'2 5.1
2018-Jun-16 23:57N 37°55' W 122°25'7 0.2
2018-Jun-15 15:58N 38°02' W 122°22'7 0.5
2018-Jun-15 01:53N 37°55' W 122°25'2 0.1
2018-Jun-13 17:21N 37°54' W 122°22'3 3.7
2018-Jun-13 16:27N 37°54' W 122°26'3 7.6
2018-Jun-13 16:00N 37°51' W 122°24'4 7.4
2018-Jun-13 15:30N 37°49' W 122°28'4 8.5
2018-Jun-13 15:00N 37°47' W 122°33'17 7.4
2018-Jun-13 12:43N 37°49' W 122°54'2 8.9
2018-Jun-13 12:30N 37°50' W 122°56'5 8.8
2018-Jun-13 11:59N 37°53' W 123°01'5 8.6
2018-Jun-13 11:27N 37°55' W 123°06'5 8.4
2018-Jun-13 10:52N 37°58' W 123°11'3 9.2
2018-Jun-13 10:30N 38°00' W 123°14'4 9.0
2018-Jun-13 10:00N 38°04' W 123°18'5 9.7
2018-Jun-13 09:30N 38°07' W 123°22'4 8.9
2018-Jun-13 09:00N 38°09' W 123°27'5 8.9
2018-Jun-13 08:30N 38°11' W 123°32'4 9.0
2018-Jun-13 08:00N 38°13' W 123°37'5 8.9
2018-Jun-13 07:30N 38°16' W 123°42'5 9.4
2018-Jun-13 07:00N 38°19' W 123°46'5 9.5
2018-Jun-13 06:26N 38°23' W 123°50'428 8.9
2018-Jun-11 06:35N 45°30' W 124°35'1 8.3
2018-Jun-11 06:26N 45°31' W 124°35'4 8.6
2018-Jun-11 05:58N 45°35' W 124°34'813.5
2018-Jun-11 05:22N 45°43' W 124°33'0 1.4
2018-Jun-11 05:00N 45°44' W 124°33'7 9.4
2018-Jun-11 04:17N 45°51' W 124°32'3 9.5
2018-Jun-11 04:00N 45°53' W 124°32'5 9.7
2018-Jun-11 03:30N 45°58' W 124°29'5 9.8
2018-Jun-11 03:00N 46°02' W 124°25'5 9.5
2018-Jun-11 02:30N 46°05' W 124°20'5 9.1
2018-Jun-11 01:59N 46°09' W 124°16'4 7.8
2018-Jun-11 01:30N 46°11' W 124°12'5 8.4
2018-Jun-11 00:55N 46°14' W 124°06'5 8.6
2018-Jun-11 00:20N 46°14' W 123°59'412.3
2018-Jun-11 00:00N 46°12' W 123°55'611.7
2018-Jun-10 23:30N 46°13' W 123°47'611.9
2018-Jun-10 23:01N 46°16' W 123°39'611.8
2018-Jun-10 22:30N 46°16' W 123°30'5 9.9
2018-Jun-10 22:00N 46°13' W 123°26'6 9.5
2018-Jun-10 21:23N 46°09' W 123°20'511.3
2018-Jun-10 20:59N 46°10' W 123°13'510.1
2018-Jun-10 20:30N 46°11' W 123°06'611.5
2018-Jun-10 19:59N 46°07' W 122°59'611.5
2018-Jun-10 19:29N 46°04' W 122°53'611.8
2018-Jun-10 19:00N 45°58' W 122°50'611.9
2018-Jun-10 18:30N 45°53' W 122°47'611.6
2018-Jun-10 18:00N 45°47' W 122°46'611.9
2018-Jun-10 17:30N 45°41' W 122°46'5 8.6
2018-Jun-10 16:57N 45°36' W 122°47'4 8.0
2018-Jun-10 16:29N 45°34' W 122°43'1 1.0
2018-Jun-10 15:40N 45°33' W 122°42'0 0.0
2018-Jun-10 15:30N 45°33' W 122°42'0 0.1
2018-Jun-10 15:00N 45°33' W 122°42'0 0.0
2018-Jun-10 14:30N 45°33' W 122°42'0 0.0
2018-Jun-10 13:25N 45°33' W 122°42'0 0.0
2018-Jun-10 12:52N 45°33' W 122°42'0 0.0
2018-Jun-10 12:22N 45°33' W 122°42'0 0.0
2018-Jun-10 11:58N 45°33' W 122°42'0 0.0
2018-Jun-10 11:25N 45°33' W 122°42'0 0.0
2018-Jun-10 10:58N 45°33' W 122°42'0 0.0
2018-Jun-10 10:04N 45°33' W 122°42'0 0.0
2018-Jun-10 09:58N 45°33' W 122°42'0 0.0
2018-Jun-10 09:28N 45°33' W 122°42'0 0.0
2018-Jun-10 08:58N 45°33' W 122°42'0 0.0
2018-Jun-10 08:01N 45°33' W 122°42'0 0.0
2018-Jun-10 07:58N 45°33' W 122°42'0 0.0
2018-Jun-10 07:16N 45°33' W 122°42'0 0.0
2018-Jun-10 06:49N 45°33' W 122°42'0 0.0
2018-Jun-10 06:25N 45°33' W 122°42'0 0.0
2018-Jun-10 05:58N 45°33' W 122°42'0 0.0
2018-Jun-10 05:28N 45°33' W 122°42'0 0.0
2018-Jun-10 04:58N 45°33' W 122°42'0 0.0
2018-Jun-10 04:22N 45°33' W 122°42'0 0.0
2018-Jun-10 03:52N 45°33' W 122°42'0 0.0
2018-Jun-10 02:13N 45°33' W 122°42'0 0.0
2018-Jun-10 01:55N 45°33' W 122°42'0 0.0
2018-Jun-10 00:25N 45°33' W 122°42'0 0.0
2018-Jun-09 23:58N 45°33' W 122°42'0 0.0
2018-Jun-09 23:25N 45°33' W 122°42'0 0.0
2018-Jun-09 22:58N 45°33' W 122°42'0 0.0
2018-Jun-09 22:28N 45°33' W 122°42'0 0.0
2018-Jun-09 21:55N 45°33' W 122°42'0 0.0
2018-Jun-09 21:28N 45°33' W 122°42'0 0.0
2018-Jun-09 20:34N 45°33' W 122°42'0 0.0
2018-Jun-09 20:25N 45°33' W 122°42'0 0.0
2018-Jun-09 19:58N 45°33' W 122°42'0 0.0
2018-Jun-09 19:28N 45°33' W 122°42'0 0.0
2018-Jun-09 18:40N 45°33' W 122°42'0 0.0
2018-Jun-09 18:25N 45°33' W 122°42'0 0.0
2018-Jun-09 17:52N 45°33' W 122°42'0 0.0
2018-Jun-09 17:28N 45°33' W 122°42'0 0.0
2018-Jun-09 16:58N 45°33' W 122°42'0 0.0
2018-Jun-09 16:28N 45°33' W 122°42'0 0.0
2018-Jun-09 15:52N 45°33' W 122°42'0 0.0
2018-Jun-09 14:40N 45°33' W 122°42'0 0.0
2018-Jun-09 13:22N 45°33' W 122°42'0 0.0
2018-Jun-09 12:52N 45°33' W 122°42'0 0.0
2018-Jun-09 12:25N 45°33' W 122°42'0 0.0
2018-Jun-09 11:55N 45°33' W 122°42'0 0.0
2018-Jun-09 11:22N 45°33' W 122°42'0 0.0
2018-Jun-09 10:55N 45°33' W 122°42'0 0.0
2018-Jun-09 10:16N 45°33' W 122°42'0 0.0
2018-Jun-09 09:58N 45°33' W 122°42'0 0.0
2018-Jun-09 09:07N 45°33' W 122°42'0 0.0
2018-Jun-09 08:58N 45°33' W 122°42'0 0.0
2018-Jun-09 08:28N 45°33' W 122°42'0 0.0
2018-Jun-09 07:58N 45°33' W 122°42'0 0.0
2018-Jun-09 07:16N 45°33' W 122°42'0 0.0
2018-Jun-09 06:52N 45°33' W 122°42'0 0.0
2018-Jun-09 06:25N 45°33' W 122°42'0 0.0
2018-Jun-09 05:58N 45°33' W 122°42'0 0.0
2018-Jun-09 05:28N 45°33' W 122°42'0 0.0
2018-Jun-09 04:40N 45°33' W 122°42'0 0.0
2018-Jun-09 04:10N 45°33' W 122°42'0 0.0
2018-Jun-09 03:10N 45°33' W 122°42'0 0.0
2018-Jun-09 02:49N 45°33' W 122°42'0 0.0
2018-Jun-09 01:10N 45°33' W 122°42'0 0.0
2018-Jun-09 00:31N 45°33' W 122°42'0 0.0
2018-Jun-09 00:19N 45°33' W 122°42'0 0.0
2018-Jun-08 23:55N 45°33' W 122°42'0 0.0
2018-Jun-08 23:16N 45°33' W 122°42'0 0.0
2018-Jun-08 22:55N 45°33' W 122°42'0 0.0
2018-Jun-08 22:28N 45°33' W 122°42'0 0.0
2018-Jun-08 21:58N 45°33' W 122°42'0 0.0
2018-Jun-08 21:25N 45°33' W 122°42'0 0.0
2018-Jun-08 20:55N 45°33' W 122°42'0 0.0
2018-Jun-08 20:25N 45°33' W 122°42'0 0.0
2018-Jun-08 19:10N 45°33' W 122°42'0 0.0
2018-Jun-08 18:58N 45°33' W 122°42'0 0.0
2018-Jun-08 18:16N 45°33' W 122°42'0 0.0
2018-Jun-08 17:58N 45°33' W 122°42'0 0.0
2018-Jun-08 17:25N 45°33' W 122°42'0 0.0
2018-Jun-08 16:43N 45°33' W 122°42'0 0.0
2018-Jun-08 16:28N 45°33' W 122°42'0 0.0
2018-Jun-08 15:52N 45°33' W 122°42'0 0.0
2018-Jun-08 15:28N 45°33' W 122°42'0 0.0
2018-Jun-08 14:49N 45°33' W 122°42'0 0.0
2018-Jun-08 14:28N 45°33' W 122°42'0 0.0
2018-Jun-08 13:52N 45°33' W 122°42'0 0.0
2018-Jun-08 13:25N 45°33' W 122°42'0 0.0
2018-Jun-08 12:58N 45°33' W 122°42'0 0.0
2018-Jun-08 12:28N 45°33' W 122°42'0 0.0
2018-Jun-08 11:55N 45°33' W 122°42'0 0.0
2018-Jun-08 11:25N 45°33' W 122°42'0 0.0
2018-Jun-08 10:58N 45°33' W 122°42'0 0.0
2018-Jun-08 10:22N 45°33' W 122°42'0 0.0
2018-Jun-08 09:37N 45°33' W 122°42'0 0.0
2018-Jun-08 09:28N 45°33' W 122°42'0 0.0
2018-Jun-08 08:52N 45°33' W 122°42'0 0.0
2018-Jun-08 07:58N 45°33' W 122°42'0 0.0
2018-Jun-08 06:55N 45°33' W 122°42'0 0.0
2018-Jun-08 06:25N 45°33' W 122°42'0 0.0
2018-Jun-08 05:58N 45°33' W 122°42'0 0.0
2018-Jun-08 05:28N 45°33' W 122°42'0 0.0
2018-Jun-08 04:52N 45°33' W 122°42'0 0.0
2018-Jun-08 04:25N 45°33' W 122°42'0 0.0
2018-Jun-08 03:52N 45°33' W 122°42'0 0.0
2018-Jun-08 03:28N 45°33' W 122°42'0 0.0
2018-Jun-08 02:37N 45°33' W 122°42'0 0.0
2018-Jun-08 01:46N 45°33' W 122°42'0 0.0
2018-Jun-08 01:28N 45°33' W 122°42'0 0.0
2018-Jun-08 00:43N 45°33' W 122°42'0 0.0
2018-Jun-08 00:22N 45°33' W 122°42'0 0.0
2018-Jun-07 23:52N 45°33' W 122°42'0 0.0
2018-Jun-07 23:28N 45°33' W 122°42'0 0.0
2018-Jun-07 22:13N 45°33' W 122°42'0 0.0
2018-Jun-07 21:52N 45°33' W 122°42'0 0.0
2018-Jun-07 21:22N 45°33' W 122°42'0 0.0
2018-Jun-07 20:31N 45°33' W 122°42'0 0.0
2018-Jun-07 20:28N 45°33' W 122°42'0 0.0
2018-Jun-07 18:25N 45°33' W 122°42'0 0.0
2018-Jun-07 17:55N 45°33' W 122°42'0 0.0
2018-Jun-07 16:25N 45°33' W 122°42'0 0.0
2018-Jun-07 15:52N 45°33' W 122°42'0 0.0
2018-Jun-07 15:28N 45°33' W 122°42'  
Track history (hours):
 
Tides and Currents Weather Stations Pressure Air Temp Water Temp Dewpoint Dewpoint Depression Visibility Wind Speed Wind Dir Waves Ship Positions

Tecumseh

Owner: Sause Bros. Inc., COOS BAY, OR. More information available from US FCC via Universal Licensing System and Coast Guard Vessel Documentation Center.

Last reported at 2018-Jun-17 15:18 UTC. Time now 2018-Jun-18 11:06 UTC.
Position N 37°47' W 122°34'.

Length 38 m; draft 5 m.

Type: Tow > 200 m length. MMSI: 367133160.

Date/timePositionNaut miles runAvg speedWind from/ knotsBaromVisibWave heightAir tempDewpointWater temp
2018-Jun-17 15:18N 37°47' W 122°34'310.6
2018-Jun-17 15:00N 37°49' W 122°31'510.5
2018-Jun-17 14:30N 37°51' W 122°24'4 0.3
2018-Jun-17 01:34N 37°54' W 122°24'111.4
2018-Jun-17 01:30N 37°54' W 122°23'1 1.2
2018-Jun-17 00:34N 37°55' W 122°22'0 2.1
2018-Jun-17 00:25N 37°55' W 122°22'2 5.1
2018-Jun-16 23:57N 37°55' W 122°25'7 0.2
2018-Jun-15 15:58N 38°02' W 122°22'7 0.5
2018-Jun-15 01:53N 37°55' W 122°25'2 0.1
2018-Jun-13 17:21N 37°54' W 122°22'3 3.7
2018-Jun-13 16:27N 37°54' W 122°26'3 7.6
2018-Jun-13 16:00N 37°51' W 122°24'4 7.4
2018-Jun-13 15:30N 37°49' W 122°28'4 8.5
2018-Jun-13 15:00N 37°47' W 122°33'17 7.4
2018-Jun-13 12:43N 37°49' W 122°54'2 8.9
2018-Jun-13 12:30N 37°50' W 122°56'5 8.8
2018-Jun-13 11:59N 37°53' W 123°01'5 8.6
2018-Jun-13 11:27N 37°55' W 123°06'5 8.4
2018-Jun-13 10:52N 37°58' W 123°11'3 9.2
2018-Jun-13 10:30N 38°00' W 123°14'4 9.0
2018-Jun-13 10:00N 38°04' W 123°18'5 9.7
2018-Jun-13 09:30N 38°07' W 123°22'4 8.9
2018-Jun-13 09:00N 38°09' W 123°27'5 8.9
2018-Jun-13 08:30N 38°11' W 123°32'4 9.0
2018-Jun-13 08:00N 38°13' W 123°37'5 8.9
2018-Jun-13 07:30N 38°16' W 123°42'5 9.4
2018-Jun-13 07:00N 38°19' W 123°46'5 9.5
2018-Jun-13 06:26N 38°23' W 123°50'428 8.9
2018-Jun-11 06:35N 45°30' W 124°35'1 8.3
2018-Jun-11 06:26N 45°31' W 124°35'4 8.6
2018-Jun-11 05:58N 45°35' W 124°34'813.5
2018-Jun-11 05:22N 45°43' W 124°33'0 1.4
2018-Jun-11 05:00N 45°44' W 124°33'7 9.4
2018-Jun-11 04:17N 45°51' W 124°32'3 9.5
2018-Jun-11 04:00N 45°53' W 124°32'5 9.7
2018-Jun-11 03:30N 45°58' W 124°29'5 9.8
2018-Jun-11 03:00N 46°02' W 124°25'5 9.5
2018-Jun-11 02:30N 46°05' W 124°20'5 9.1
2018-Jun-11 01:59N 46°09' W 124°16'4 7.8
2018-Jun-11 01:30N 46°11' W 124°12'5 8.4
2018-Jun-11 00:55N 46°14' W 124°06'5 8.6
2018-Jun-11 00:20N 46°14' W 123°59'412.3
2018-Jun-11 00:00N 46°12' W 123°55'611.7
2018-Jun-10 23:30N 46°13' W 123°47'611.9
2018-Jun-10 23:01N 46°16' W 123°39'611.8
2018-Jun-10 22:30N 46°16' W 123°30'5 9.9
2018-Jun-10 22:00N 46°13' W 123°26'6 9.5
2018-Jun-10 21:23N 46°09' W 123°20'511.3
2018-Jun-10 20:59N 46°10' W 123°13'510.1
2018-Jun-10 20:30N 46°11' W 123°06'611.5
2018-Jun-10 19:59N 46°07' W 122°59'611.5
2018-Jun-10 19:29N 46°04' W 122°53'611.8
2018-Jun-10 19:00N 45°58' W 122°50'611.9
2018-Jun-10 18:30N 45°53' W 122°47'611.6
2018-Jun-10 18:00N 45°47' W 122°46'611.9
2018-Jun-10 17:30N 45°41' W 122°46'5 8.6
2018-Jun-10 16:57N 45°36' W 122°47'4 8.0
2018-Jun-10 16:29N 45°34' W 122°43'1 1.0
2018-Jun-10 15:40N 45°33' W 122°42'0 0.0
2018-Jun-10 15:30N 45°33' W 122°42'0 0.1
2018-Jun-10 15:00N 45°33' W 122°42'0 0.0
2018-Jun-10 14:30N 45°33' W 122°42'0 0.0
2018-Jun-10 13:25N 45°33' W 122°42'0 0.0
2018-Jun-10 12:52N 45°33' W 122°42'0 0.0
2018-Jun-10 12:22N 45°33' W 122°42'0 0.0
2018-Jun-10 11:58N 45°33' W 122°42'0 0.0
2018-Jun-10 11:25N 45°33' W 122°42'0 0.0
2018-Jun-10 10:58N 45°33' W 122°42'0 0.0
2018-Jun-10 10:04N 45°33' W 122°42'0 0.0
2018-Jun-10 09:58N 45°33' W 122°42'0 0.0
2018-Jun-10 09:28N 45°33' W 122°42'0 0.0
2018-Jun-10 08:58N 45°33' W 122°42'0 0.0
2018-Jun-10 08:01N 45°33' W 122°42'0 0.0
2018-Jun-10 07:58N 45°33' W 122°42'0 0.0
2018-Jun-10 07:16N 45°33' W 122°42'0 0.0
2018-Jun-10 06:49N 45°33' W 122°42'0 0.0
2018-Jun-10 06:25N 45°33' W 122°42'0 0.0
2018-Jun-10 05:58N 45°33' W 122°42'0 0.0
2018-Jun-10 05:28N 45°33' W 122°42'0 0.0
2018-Jun-10 04:58N 45°33' W 122°42'0 0.0
2018-Jun-10 04:22N 45°33' W 122°42'0 0.0
2018-Jun-10 03:52N 45°33' W 122°42'0 0.0
2018-Jun-10 02:13N 45°33' W 122°42'0 0.0
2018-Jun-10 01:55N 45°33' W 122°42'0 0.0
2018-Jun-10 00:25N 45°33' W 122°42'0 0.0
2018-Jun-09 23:58N 45°33' W 122°42'0 0.0
2018-Jun-09 23:25N 45°33' W 122°42'0 0.0
2018-Jun-09 22:58N 45°33' W 122°42'0 0.0
2018-Jun-09 22:28N 45°33' W 122°42'0 0.0
2018-Jun-09 21:55N 45°33' W 122°42'0 0.0
2018-Jun-09 21:28N 45°33' W 122°42'0 0.0
2018-Jun-09 20:34N 45°33' W 122°42'0 0.0
2018-Jun-09 20:25N 45°33' W 122°42'0 0.0
2018-Jun-09 19:58N 45°33' W 122°42'0 0.0
2018-Jun-09 19:28N 45°33' W 122°42'0 0.0
2018-Jun-09 18:40N 45°33' W 122°42'0 0.0
2018-Jun-09 18:25N 45°33' W 122°42'0 0.0
2018-Jun-09 17:52N 45°33' W 122°42'0 0.0
2018-Jun-09 17:28N 45°33' W 122°42'0 0.0
2018-Jun-09 16:58N 45°33' W 122°42'0 0.0
2018-Jun-09 16:28N 45°33' W 122°42'0 0.0
2018-Jun-09 15:52N 45°33' W 122°42'0 0.0
2018-Jun-09 14:40N 45°33' W 122°42'0 0.0
2018-Jun-09 13:22N 45°33' W 122°42'0 0.0
2018-Jun-09 12:52N 45°33' W 122°42'0 0.0
2018-Jun-09 12:25N 45°33' W 122°42'0 0.0
2018-Jun-09 11:55N 45°33' W 122°42'0 0.0
2018-Jun-09 11:22N 45°33' W 122°42'0 0.0
2018-Jun-09 10:55N 45°33' W 122°42'0 0.0
2018-Jun-09 10:16N 45°33' W 122°42'0 0.0
2018-Jun-09 09:58N 45°33' W 122°42'0 0.0
2018-Jun-09 09:07N 45°33' W 122°42'0 0.0
2018-Jun-09 08:58N 45°33' W 122°42'0 0.0
2018-Jun-09 08:28N 45°33' W 122°42'0 0.0
2018-Jun-09 07:58N 45°33' W 122°42'0 0.0
2018-Jun-09 07:16N 45°33' W 122°42'0 0.0
2018-Jun-09 06:52N 45°33' W 122°42'0 0.0
2018-Jun-09 06:25N 45°33' W 122°42'0 0.0
2018-Jun-09 05:58N 45°33' W 122°42'0 0.0
2018-Jun-09 05:28N 45°33' W 122°42'0 0.0
2018-Jun-09 04:40N 45°33' W 122°42'0 0.0
2018-Jun-09 04:10N 45°33' W 122°42'0 0.0
2018-Jun-09 03:10N 45°33' W 122°42'0 0.0
2018-Jun-09 02:49N 45°33' W 122°42'0 0.0
2018-Jun-09 01:10N 45°33' W 122°42'0 0.0
2018-Jun-09 00:31N 45°33' W 122°42'0 0.0
2018-Jun-09 00:19N 45°33' W 122°42'0 0.0
2018-Jun-08 23:55N 45°33' W 122°42'0 0.0
2018-Jun-08 23:16N 45°33' W 122°42'0 0.0
2018-Jun-08 22:55N 45°33' W 122°42'0 0.0
2018-Jun-08 22:28N 45°33' W 122°42'0 0.0
2018-Jun-08 21:58N 45°33' W 122°42'0 0.0
2018-Jun-08 21:25N 45°33' W 122°42'0 0.0
2018-Jun-08 20:55N 45°33' W 122°42'0 0.0
2018-Jun-08 20:25N 45°33' W 122°42'0 0.0
2018-Jun-08 19:10N 45°33' W 122°42'0 0.0
2018-Jun-08 18:58N 45°33' W 122°42'0 0.0
2018-Jun-08 18:16N 45°33' W 122°42'0 0.0
2018-Jun-08 17:58N 45°33' W 122°42'0 0.0
2018-Jun-08 17:25N 45°33' W 122°42'0 0.0
2018-Jun-08 16:43N 45°33' W 122°42'0 0.0
2018-Jun-08 16:28N 45°33' W 122°42'0 0.0
2018-Jun-08 15:52N 45°33' W 122°42'0 0.0
2018-Jun-08 15:28N 45°33' W 122°42'0 0.0
2018-Jun-08 14:49N 45°33' W 122°42'0 0.0
2018-Jun-08 14:28N 45°33' W 122°42'0 0.0
2018-Jun-08 13:52N 45°33' W 122°42'0 0.0
2018-Jun-08 13:25N 45°33' W 122°42'0 0.0
2018-Jun-08 12:58N 45°33' W 122°42'0 0.0
2018-Jun-08 12:28N 45°33' W 122°42'0 0.0
2018-Jun-08 11:55N 45°33' W 122°42'0 0.0
2018-Jun-08 11:25N 45°33' W 122°42'0 0.0
2018-Jun-08 10:58N 45°33' W 122°42'0 0.0
2018-Jun-08 10:22N 45°33' W 122°42'0 0.0
2018-Jun-08 09:37N 45°33' W 122°42'0 0.0
2018-Jun-08 09:28N 45°33' W 122°42'0 0.0
2018-Jun-08 08:52N 45°33' W 122°42'0 0.0
2018-Jun-08 07:58N 45°33' W 122°42'0 0.0
2018-Jun-08 06:55N 45°33' W 122°42'0 0.0
2018-Jun-08 06:25N 45°33' W 122°42'0 0.0
2018-Jun-08 05:58N 45°33' W 122°42'0 0.0
2018-Jun-08 05:28N 45°33' W 122°42'0 0.0
2018-Jun-08 04:52N 45°33' W 122°42'0 0.0
2018-Jun-08 04:25N 45°33' W 122°42'0 0.0
2018-Jun-08 03:52N 45°33' W 122°42'0 0.0
2018-Jun-08 03:28N 45°33' W 122°42'0 0.0
2018-Jun-08 02:37N 45°33' W 122°42'0 0.0
2018-Jun-08 01:46N 45°33' W 122°42'0 0.0
2018-Jun-08 01:28N 45°33' W 122°42'0 0.0
2018-Jun-08 00:43N 45°33' W 122°42'0 0.0
2018-Jun-08 00:22N 45°33' W 122°42'0 0.0
2018-Jun-07 23:52N 45°33' W 122°42'0 0.0
2018-Jun-07 23:28N 45°33' W 122°42'0 0.0
2018-Jun-07 22:13N 45°33' W 122°42'0 0.0
2018-Jun-07 21:52N 45°33' W 122°42'0 0.0
2018-Jun-07 21:22N 45°33' W 122°42'0 0.0
2018-Jun-07 20:31N 45°33' W 122°42'0 0.0
2018-Jun-07 20:28N 45°33' W 122°42'0 0.0
2018-Jun-07 18:25N 45°33' W 122°42'0 0.0
2018-Jun-07 17:55N 45°33' W 122°42'0 0.0
2018-Jun-07 16:25N 45°33' W 122°42'0 0.0
2018-Jun-07 15:52N 45°33' W 122°42'0 0.0
2018-Jun-07 15:28N 45°33' W 122°42'  

Dump ship's entire track history